Terminal Aerodrome Forecast
Issued by NWS Omaha/Valley, NE

Home | Current Version | Previous Version | Graphics & Text | Print | Product List | Glossary On
Versions: 1 2 3 4 5 6 7 8 9 10 11 12 13 14 15 16 17 18 19 20 21 22
000
FTUS43 KOAX 211307 AAA
TAFOFK
TAF AMD
KOFK 211307Z 2113/2212 VRB05KT P6SM SCT120
      TEMPO 2113/2114 5SM BR=

USA.gov is the U.S. government's official web portal to all federal, state and local government web resources and services.